DAL718 KLAX-KMCO
Flight info
| Callsign | DAL718 |
|---|---|
| Flight time | 4h 10m |
| Altitude | 35000 |
| Route | DOTSS2 CLEEE PKE HIDAT KA27O NABOB J74 TXO J72 SPS TXK MEI DEEDA GRNCH5 |
| Aircraft | A321/M-SDE3FGHIRWY/LB1 |
Departure
| Time | 2026-04-24 22:40 |
|---|---|
| Airport | Los Angeles International Airport (KLAX) |
Arrival
| Time | 2026-04-25 02:51 |
|---|---|
| Airport | Orlando International Airport (KMCO) |
| Time | Latitude | Longitude | Altitude | Speed | Heading |
|---|---|---|---|---|---|
| 2026-04-24 21:00 | 33.94576 | -118.40490 | 141 ft | 0 kts | 83° |
| 2026-04-24 22:31 | 33.94574 | -118.40510 | 141 ft | 4 kts | 83° |
| 2026-04-24 22:31 | 33.94571 | -118.40534 | 141 ft | 4 kts | 81° |
| 2026-04-24 22:32 | 33.94565 | -118.40561 | 141 ft | 4 kts | 48° |
| 2026-04-24 22:32 | 33.94553 | -118.40569 | 141 ft | 1 kts | 354° |
| 2026-04-24 22:32 | 33.94575 | -118.40573 | 141 ft | 4 kts | 352° |
| 2026-04-24 22:32 | 33.94600 | -118.40577 | 141 ft | 4 kts | 352° |
| 2026-04-24 22:33 | 33.94625 | -118.40580 | 141 ft | 4 kts | 353° |
| 2026-04-24 22:33 | 33.94643 | -118.40582 | 141 ft | 0 kts | 354° |
| 2026-04-24 22:36 | 33.94656 | -118.40584 | 141 ft | 6 kts | 354° |
| 2026-04-24 22:36 | 33.94727 | -118.40593 | 141 ft | 13 kts | 354° |
| 2026-04-24 22:36 | 33.94808 | -118.40604 | 141 ft | 11 kts | 354° |
| 2026-04-24 22:36 | 33.94859 | -118.40591 | 141 ft | 5 kts | 60° |
| 2026-04-24 22:37 | 33.94868 | -118.40547 | 141 ft | 6 kts | 80° |
| 2026-04-24 22:37 | 33.94874 | -118.40488 | 141 ft | 8 kts | 83° |
| 2026-04-24 22:37 | 33.94881 | -118.40427 | 141 ft | 7 kts | 82° |
| 2026-04-24 22:37 | 33.94889 | -118.40364 | 141 ft | 9 kts | 82° |
| 2026-04-24 22:38 | 33.94898 | -118.40288 | 141 ft | 9 kts | 82° |
| 2026-04-24 22:38 | 33.94906 | -118.40214 | 141 ft | 9 kts | 83° |
| 2026-04-24 22:38 | 33.94913 | -118.40130 | 141 ft | 11 kts | 83° |
| 2026-04-24 22:38 | 33.94924 | -118.40037 | 141 ft | 12 kts | 82° |
| 2026-04-24 22:39 | 33.94948 | -118.39939 | 141 ft | 13 kts | 43° |
| 2026-04-24 22:39 | 33.95031 | -118.39938 | 141 ft | 13 kts | 314° |
| 2026-04-24 22:39 | 33.95037 | -118.40033 | 141 ft | 15 kts | 264° |
| 2026-04-24 22:39 | 33.94999 | -118.40383 | 141 ft | 77 kts | 262° |
| 2026-04-24 22:40 | 33.94905 | -118.41278 | 141 ft | 138 kts | 262° |
| 2026-04-24 22:40 | 33.94773 | -118.42546 | 520 ft | 150 kts | 261° |
| 2026-04-24 22:40 | 33.94649 | -118.43753 | 1262 ft | 143 kts | 261° |
| 2026-04-24 22:40 | 33.94515 | -118.45009 | 1536 ft | 159 kts | 261° |
| 2026-04-24 22:41 | 33.94370 | -118.46410 | 1663 ft | 178 kts | 263° |
| 2026-04-24 22:41 | 33.94295 | -118.47968 | 1866 ft | 194 kts | 266° |
| 2026-04-24 22:41 | 33.94259 | -118.49652 | 2120 ft | 207 kts | 267° |
| 2026-04-24 22:41 | 33.94189 | -118.51453 | 2329 ft | 225 kts | 265° |
| 2026-04-24 22:42 | 33.94042 | -118.53419 | 2596 ft | 243 kts | 263° |
| 2026-04-24 22:42 | 33.93848 | -118.55508 | 2972 ft | 257 kts | 263° |
| 2026-04-24 22:42 | 33.93669 | -118.57681 | 3518 ft | 264 kts | 264° |
| 2026-04-24 22:42 | 33.93508 | -118.59872 | 4168 ft | 266 kts | 263° |
| 2026-04-24 22:43 | 33.93011 | -118.62037 | 4805 ft | 268 kts | 240° |
| 2026-04-24 22:43 | 33.91768 | -118.63655 | 5390 ft | 270 kts | 211° |
| 2026-04-24 22:43 | 33.89989 | -118.64323 | 5984 ft | 272 kts | 183° |
| 2026-04-24 22:43 | 33.88085 | -118.64206 | 6594 ft | 276 kts | 174° |
| 2026-04-24 22:44 | 33.86168 | -118.63933 | 7188 ft | 279 kts | 174° |
| 2026-04-24 22:44 | 33.84237 | -118.63563 | 7768 ft | 283 kts | 165° |
| 2026-04-24 22:44 | 33.82434 | -118.62595 | 8326 ft | 287 kts | 150° |
| 2026-04-24 22:44 | 33.80767 | -118.61249 | 8883 ft | 291 kts | 146° |
| 2026-04-24 22:45 | 33.79122 | -118.59801 | 9424 ft | 294 kts | 145° |
| 2026-04-24 22:45 | 33.77459 | -118.58364 | 9967 ft | 296 kts | 147° |
| 2026-04-24 22:45 | 33.75737 | -118.56950 | 10413 ft | 304 kts | 148° |
| 2026-04-24 22:45 | 33.73936 | -118.55505 | 10621 ft | 319 kts | 149° |
| 2026-04-24 22:46 | 33.72047 | -118.53986 | 10799 ft | 335 kts | 148° |
| 2026-04-24 22:46 | 33.70215 | -118.52146 | 10963 ft | 353 kts | 135° |
| 2026-04-24 22:46 | 33.68825 | -118.49633 | 11122 ft | 372 kts | 116° |
| 2026-04-24 22:46 | 33.67906 | -118.46677 | 11388 ft | 383 kts | 110° |
| 2026-04-24 22:47 | 33.67103 | -118.43608 | 11843 ft | 387 kts | 109° |
| 2026-04-24 22:47 | 33.66302 | -118.40546 | 12299 ft | 390 kts | 110° |
| 2026-04-24 22:47 | 33.65432 | -118.37444 | 12748 ft | 394 kts | 111° |
| 2026-04-24 22:47 | 33.64631 | -118.34282 | 13176 ft | 400 kts | 103° |
| 2026-04-24 22:48 | 33.64346 | -118.30940 | 13606 ft | 405 kts | 94° |
| 2026-04-24 22:48 | 33.64324 | -118.27549 | 14027 ft | 409 kts | 90° |
| 2026-04-24 22:48 | 33.64391 | -118.24106 | 14433 ft | 414 kts | 90° |
| 2026-04-24 22:48 | 33.64464 | -118.20636 | 14851 ft | 417 kts | 90° |
| 2026-04-24 22:49 | 33.64501 | -118.17148 | 15252 ft | 421 kts | 91° |
| 2026-04-24 22:49 | 33.64498 | -118.13618 | 15642 ft | 424 kts | 92° |
| 2026-04-24 22:49 | 33.64474 | -118.10063 | 16014 ft | 428 kts | 92° |
| 2026-04-24 22:49 | 33.64450 | -118.06479 | 16379 ft | 432 kts | 92° |
| 2026-04-24 22:50 | 33.64439 | -118.02856 | 16739 ft | 435 kts | 92° |
| 2026-04-24 22:50 | 33.64443 | -117.99212 | 17100 ft | 439 kts | 92° |
| 2026-04-24 22:50 | 33.64446 | -117.95529 | 17444 ft | 442 kts | 92° |
| 2026-04-24 22:50 | 33.64444 | -117.91815 | 17790 ft | 446 kts | 92° |
| 2026-04-24 22:51 | 33.64433 | -117.88084 | 18127 ft | 449 kts | 92° |
| 2026-04-24 22:51 | 33.64419 | -117.84326 | 18463 ft | 452 kts | 92° |
| 2026-04-24 22:51 | 33.64439 | -117.80535 | 18787 ft | 456 kts | 89° |
| 2026-04-24 22:51 | 33.64861 | -117.76792 | 19101 ft | 461 kts | 79° |
| 2026-04-24 22:52 | 33.65560 | -117.72967 | 19428 ft | 464 kts | 77° |
| 2026-04-24 22:52 | 33.66329 | -117.69242 | 19734 ft | 468 kts | 76° |
| 2026-04-24 22:52 | 33.67135 | -117.65440 | 20052 ft | 471 kts | 76° |
| 2026-04-24 22:52 | 33.67914 | -117.61608 | 20362 ft | 473 kts | 77° |
| 2026-04-24 22:53 | 33.68647 | -117.57754 | 20657 ft | 476 kts | 78° |
| 2026-04-24 22:53 | 33.69360 | -117.53850 | 20942 ft | 479 kts | 78° |
| 2026-04-24 22:53 | 33.70079 | -117.49938 | 21224 ft | 481 kts | 78° |
| 2026-04-24 22:53 | 33.70823 | -117.46000 | 21497 ft | 484 kts | 77° |
| 2026-04-24 22:54 | 33.71583 | -117.42054 | 21773 ft | 487 kts | 77° |
| 2026-04-24 22:54 | 33.72351 | -117.38081 | 22035 ft | 489 kts | 77° |
| 2026-04-24 22:54 | 33.73114 | -117.34084 | 22288 ft | 492 kts | 77° |
| 2026-04-24 22:54 | 33.73874 | -117.30062 | 22559 ft | 494 kts | 77° |
| 2026-04-24 22:55 | 33.74628 | -117.26022 | 22813 ft | 497 kts | 78° |
| 2026-04-24 22:55 | 33.75097 | -117.21904 | 23053 ft | 497 kts | 89° |
| 2026-04-24 22:55 | 33.75131 | -117.17753 | 23313 ft | 498 kts | 93° |
| 2026-04-24 22:55 | 33.75032 | -117.13584 | 23557 ft | 500 kts | 95° |
| 2026-04-24 22:56 | 33.74877 | -117.09400 | 23783 ft | 502 kts | 95° |
| 2026-04-24 22:56 | 33.74728 | -117.05197 | 24024 ft | 504 kts | 94° |
| 2026-04-24 22:56 | 33.74627 | -117.01034 | 24258 ft | 506 kts | 93° |
| 2026-04-24 22:56 | 33.74561 | -116.96739 | 24503 ft | 508 kts | 93° |
| 2026-04-24 22:57 | 33.74502 | -116.92544 | 24739 ft | 509 kts | 93° |
| 2026-04-24 22:57 | 33.74423 | -116.88280 | 24978 ft | 511 kts | 94° |
| 2026-04-24 22:57 | 33.74319 | -116.84010 | 25212 ft | 512 kts | 94° |
| 2026-04-24 22:57 | 33.74203 | -116.79735 | 25416 ft | 514 kts | 94° |
| 2026-04-24 22:58 | 33.74092 | -116.75424 | 25622 ft | 515 kts | 94° |
| 2026-04-24 22:58 | 33.73992 | -116.71112 | 25836 ft | 517 kts | 94° |
| 2026-04-24 22:58 | 33.73899 | -116.66788 | 26036 ft | 518 kts | 94° |
| 2026-04-24 22:58 | 33.73798 | -116.62457 | 26241 ft | 519 kts | 94° |
| 2026-04-24 22:59 | 33.73693 | -116.58117 | 26432 ft | 521 kts | 94° |
| 2026-04-24 22:59 | 33.73621 | -116.55227 | 26543 ft | 522 kts | 94° |
| 2026-04-24 22:59 | 33.73395 | -116.46481 | 26885 ft | 525 kts | 94° |
| 2026-04-24 23:00 | 33.73281 | -116.42081 | 27061 ft | 527 kts | 94° |
| 2026-04-24 23:00 | 33.73168 | -116.37670 | 27235 ft | 528 kts | 94° |
| 2026-04-24 23:00 | 33.73053 | -116.33262 | 27401 ft | 529 kts | 94° |
| 2026-04-24 23:00 | 33.72935 | -116.28836 | 27550 ft | 530 kts | 94° |
| 2026-04-24 23:01 | 33.72812 | -116.24402 | 27704 ft | 531 kts | 94° |
| 2026-04-24 23:01 | 33.72685 | -116.19973 | 27942 ft | 531 kts | 95° |
| 2026-04-24 23:01 | 33.72556 | -116.15533 | 28129 ft | 531 kts | 95° |
| 2026-04-24 23:01 | 33.72440 | -116.11145 | 28302 ft | 532 kts | 93° |
| 2026-04-24 23:02 | 33.72689 | -116.06711 | 28501 ft | 534 kts | 82° |
| 2026-04-24 23:02 | 33.73581 | -116.02381 | 28698 ft | 535 kts | 73° |
| 2026-04-24 23:02 | 33.74755 | -115.98142 | 28851 ft | 535 kts | 70° |
| 2026-04-24 23:02 | 33.76013 | -115.93931 | 29058 ft | 535 kts | 70° |
| 2026-04-24 23:03 | 33.77267 | -115.89728 | 29263 ft | 534 kts | 70° |
| 2026-04-24 23:03 | 33.78472 | -115.85496 | 29423 ft | 535 kts | 71° |
| 2026-04-24 23:03 | 33.79620 | -115.81246 | 29623 ft | 534 kts | 72° |
| 2026-04-24 23:03 | 33.80746 | -115.76993 | 29810 ft | 534 kts | 72° |
| 2026-04-24 23:04 | 33.81889 | -115.72737 | 29955 ft | 534 kts | 72° |
| 2026-04-24 23:04 | 33.83058 | -115.68502 | 30192 ft | 533 kts | 71° |
| 2026-04-24 23:04 | 33.84242 | -115.64276 | 30375 ft | 532 kts | 71° |
| 2026-04-24 23:04 | 33.85422 | -115.60055 | 30562 ft | 532 kts | 71° |
| 2026-04-24 23:05 | 33.86585 | -115.55822 | 30745 ft | 531 kts | 71° |
| 2026-04-24 23:05 | 33.87728 | -115.51604 | 30963 ft | 530 kts | 72° |
| 2026-04-24 23:05 | 33.88870 | -115.47387 | 31136 ft | 529 kts | 71° |
| 2026-04-24 23:05 | 33.90016 | -115.43180 | 31304 ft | 529 kts | 71° |
| 2026-04-24 23:06 | 33.91164 | -115.38980 | 31469 ft | 528 kts | 71° |
| 2026-04-24 23:06 | 33.92313 | -115.34778 | 31637 ft | 528 kts | 71° |
| 2026-04-24 23:06 | 33.93458 | -115.30578 | 31794 ft | 527 kts | 71° |
| 2026-04-24 23:06 | 33.94582 | -115.26434 | 31947 ft | 527 kts | 71° |
| 2026-04-24 23:07 | 33.95710 | -115.22241 | 32108 ft | 526 kts | 71° |
| 2026-04-24 23:07 | 33.96842 | -115.18036 | 32261 ft | 526 kts | 71° |
| 2026-04-24 23:07 | 33.97977 | -115.13831 | 32367 ft | 527 kts | 71° |
| 2026-04-24 23:07 | 33.99111 | -115.09638 | 32516 ft | 526 kts | 71° |
| 2026-04-24 23:08 | 34.00248 | -115.05432 | 32658 ft | 526 kts | 71° |
| 2026-04-24 23:08 | 34.02500 | -114.97039 | 32869 ft | 527 kts | 71° |
| 2026-04-24 23:08 | 34.03623 | -114.92833 | 33007 ft | 526 kts | 71° |
| 2026-04-24 23:09 | 34.04747 | -114.88629 | 33102 ft | 527 kts | 71° |
| 2026-04-24 23:09 | 34.05871 | -114.84428 | 33229 ft | 527 kts | 71° |
| 2026-04-24 23:09 | 34.06998 | -114.80218 | 33354 ft | 526 kts | 71° |
| 2026-04-24 23:10 | 34.09233 | -114.71811 | 33568 ft | 527 kts | 71° |
| 2026-04-24 23:10 | 34.10361 | -114.67601 | 33687 ft | 526 kts | 70° |
| 2026-04-24 23:10 | 34.11514 | -114.63468 | 33800 ft | 526 kts | 70° |
| 2026-04-24 23:10 | 34.12691 | -114.59286 | 33911 ft | 526 kts | 70° |
| 2026-04-24 23:11 | 34.13866 | -114.55109 | 34031 ft | 525 kts | 70° |
| 2026-04-24 23:11 | 34.15035 | -114.50941 | 34135 ft | 525 kts | 70° |
| 2026-04-24 23:11 | 34.16204 | -114.46756 | 34177 ft | 527 kts | 70° |
| 2026-04-24 23:11 | 34.17376 | -114.42550 | 34279 ft | 526 kts | 70° |
| 2026-04-24 23:12 | 34.18539 | -114.38364 | 34388 ft | 526 kts | 70° |
| 2026-04-24 23:12 | 34.20871 | -114.29983 | 34538 ft | 526 kts | 70° |
| 2026-04-24 23:13 | 34.23197 | -114.21599 | 34722 ft | 526 kts | 70° |
| 2026-04-24 23:13 | 34.25517 | -114.13190 | 34773 ft | 526 kts | 70° |
| 2026-04-24 23:14 | 34.27815 | -114.04848 | 34781 ft | 526 kts | 70° |
| 2026-04-24 23:14 | 34.30126 | -113.96443 | 34787 ft | 527 kts | 70° |
| 2026-04-24 23:15 | 34.32431 | -113.88025 | 34790 ft | 527 kts | 70° |
| 2026-04-24 23:15 | 34.34728 | -113.79602 | 34797 ft | 527 kts | 70° |
| 2026-04-24 23:16 | 34.37017 | -113.71180 | 34796 ft | 527 kts | 70° |
| 2026-04-24 23:16 | 34.39306 | -113.62740 | 34788 ft | 527 kts | 70° |
| 2026-04-24 23:17 | 34.41575 | -113.54362 | 34777 ft | 527 kts | 70° |
| 2026-04-24 23:17 | 34.43855 | -113.45912 | 34783 ft | 527 kts | 70° |
| 2026-04-24 23:18 | 34.46118 | -113.37478 | 34820 ft | 527 kts | 70° |
| 2026-04-24 23:18 | 34.48387 | -113.29019 | 34844 ft | 527 kts | 70° |
| 2026-04-24 23:19 | 34.50648 | -113.20556 | 34853 ft | 528 kts | 70° |
| 2026-04-24 23:19 | 34.52904 | -113.12076 | 34864 ft | 528 kts | 70° |
| 2026-04-24 23:20 | 34.55145 | -113.03642 | 34868 ft | 530 kts | 70° |
| 2026-04-24 23:20 | 34.56506 | -112.94901 | 34880 ft | 529 kts | 91° |
| 2026-04-24 23:21 | 34.55992 | -112.86015 | 34888 ft | 528 kts | 98° |
| 2026-04-24 23:21 | 34.55236 | -112.77132 | 34898 ft | 530 kts | 97° |
| 2026-04-24 23:22 | 34.54685 | -112.68212 | 34955 ft | 530 kts | 96° |
| 2026-04-24 23:22 | 34.54155 | -112.59286 | 34996 ft | 531 kts | 97° |
| 2026-04-24 23:23 | 34.53516 | -112.50366 | 34999 ft | 531 kts | 97° |
| 2026-04-24 23:23 | 34.52887 | -112.41440 | 35000 ft | 530 kts | 97° |
| 2026-04-24 23:24 | 34.52295 | -112.32537 | 34992 ft | 530 kts | 97° |
| 2026-04-24 23:24 | 34.51671 | -112.23634 | 34978 ft | 529 kts | 97° |
| 2026-04-24 23:25 | 34.51040 | -112.14792 | 34956 ft | 529 kts | 97° |
| 2026-04-24 23:25 | 34.50412 | -112.05896 | 34924 ft | 529 kts | 97° |
| 2026-04-24 23:26 | 34.49321 | -111.97110 | 34908 ft | 523 kts | 109° |
| 2026-04-24 23:26 | 34.47266 | -111.88811 | 34900 ft | 522 kts | 112° |
| 2026-04-24 23:27 | 34.45022 | -111.80286 | 34900 ft | 523 kts | 111° |
| 2026-04-24 23:27 | 34.42940 | -111.71812 | 34932 ft | 524 kts | 110° |
| 2026-04-24 23:28 | 34.40876 | -111.63415 | 34961 ft | 523 kts | 111° |
| 2026-04-24 23:28 | 34.38724 | -111.54999 | 34982 ft | 523 kts | 111° |
| 2026-04-24 23:29 | 34.36586 | -111.46565 | 34983 ft | 524 kts | 111° |
| 2026-04-24 23:29 | 34.34464 | -111.38120 | 34945 ft | 525 kts | 111° |
| 2026-04-24 23:30 | 34.32918 | -111.29457 | 34945 ft | 531 kts | 94° |
| 2026-04-24 23:30 | 34.33230 | -111.20566 | 34944 ft | 533 kts | 85° |
| 2026-04-24 23:31 | 34.33881 | -111.11608 | 34941 ft | 535 kts | 86° |
| 2026-04-24 23:31 | 34.34324 | -111.02617 | 34955 ft | 535 kts | 88° |
| 2026-04-24 23:32 | 34.34700 | -110.93606 | 34997 ft | 535 kts | 87° |
| 2026-04-24 23:32 | 34.35180 | -110.84604 | 35007 ft | 536 kts | 86° |
| 2026-04-24 23:33 | 34.35642 | -110.75645 | 35011 ft | 536 kts | 87° |
| 2026-04-24 23:33 | 34.36051 | -110.66622 | 34995 ft | 537 kts | 87° |
| 2026-04-24 23:34 | 34.36479 | -110.57597 | 34959 ft | 538 kts | 87° |
| 2026-04-24 23:34 | 34.36910 | -110.48551 | 34945 ft | 538 kts | 87° |
| 2026-04-24 23:35 | 34.37324 | -110.39500 | 34943 ft | 538 kts | 87° |
| 2026-04-24 23:35 | 34.37733 | -110.30450 | 34954 ft | 539 kts | 87° |
| 2026-04-24 23:36 | 34.38137 | -110.21386 | 34982 ft | 539 kts | 88° |
| 2026-04-24 23:36 | 34.38532 | -110.12316 | 34995 ft | 539 kts | 88° |
| 2026-04-24 23:37 | 34.38921 | -110.03251 | 35017 ft | 539 kts | 88° |
| 2026-04-24 23:37 | 34.39494 | -109.89708 | 35045 ft | 539 kts | 88° |
| 2026-04-24 23:38 | 34.39867 | -109.80630 | 35038 ft | 540 kts | 88° |
| 2026-04-24 23:38 | 34.40234 | -109.71546 | 35021 ft | 540 kts | 88° |
| 2026-04-24 23:39 | 34.40597 | -109.62471 | 35004 ft | 539 kts | 88° |
| 2026-04-24 23:39 | 34.40948 | -109.53395 | 34984 ft | 539 kts | 88° |
| 2026-04-24 23:40 | 34.41294 | -109.44336 | 34972 ft | 538 kts | 88° |
| 2026-04-24 23:40 | 34.41634 | -109.35297 | 34949 ft | 537 kts | 88° |
| 2026-04-24 23:41 | 34.41962 | -109.26269 | 34912 ft | 536 kts | 88° |
| 2026-04-24 23:41 | 34.42287 | -109.17291 | 34884 ft | 536 kts | 88° |
| 2026-04-24 23:42 | 34.42399 | -109.08269 | 34887 ft | 536 kts | 90° |
| 2026-04-24 23:42 | 34.42351 | -108.99246 | 34892 ft | 537 kts | 91° |
| 2026-04-24 23:43 | 34.42299 | -108.90191 | 34895 ft | 538 kts | 90° |
| 2026-04-24 23:43 | 34.42273 | -108.81132 | 34922 ft | 538 kts | 90° |
| 2026-04-24 23:44 | 34.42224 | -108.72069 | 34977 ft | 538 kts | 91° |
| 2026-04-24 23:44 | 34.42164 | -108.63005 | 34979 ft | 539 kts | 91° |
| 2026-04-24 23:45 | 34.42114 | -108.55458 | 34981 ft | 539 kts | 91° |
| 2026-04-24 23:45 | 34.42034 | -108.44843 | 34981 ft | 539 kts | 91° |
| 2026-04-24 23:46 | 34.41969 | -108.37303 | 34976 ft | 539 kts | 91° |
| 2026-04-24 23:46 | 34.41887 | -108.28228 | 34964 ft | 538 kts | 91° |
| 2026-04-24 23:47 | 34.41800 | -108.19163 | 34934 ft | 539 kts | 91° |
| 2026-04-24 23:47 | 34.41706 | -108.10086 | 34894 ft | 539 kts | 91° |
| 2026-04-24 23:48 | 34.41604 | -108.01014 | 34882 ft | 539 kts | 91° |
| 2026-04-24 23:48 | 34.41497 | -107.91931 | 34874 ft | 540 kts | 91° |
| 2026-04-24 23:49 | 34.41380 | -107.82888 | 34904 ft | 540 kts | 91° |
| 2026-04-24 23:49 | 34.41256 | -107.73795 | 34925 ft | 540 kts | 91° |
| 2026-04-24 23:50 | 34.41133 | -107.64691 | 34938 ft | 540 kts | 91° |
| 2026-04-24 23:50 | 34.40998 | -107.55604 | 34933 ft | 539 kts | 91° |
| 2026-04-24 23:51 | 34.40855 | -107.46536 | 34915 ft | 538 kts | 91° |
| 2026-04-24 23:51 | 34.40711 | -107.37481 | 34878 ft | 538 kts | 91° |
| 2026-04-24 23:52 | 34.40553 | -107.28493 | 34840 ft | 537 kts | 91° |
| 2026-04-24 23:52 | 34.40393 | -107.19437 | 34818 ft | 537 kts | 91° |
| 2026-04-24 23:53 | 34.40227 | -107.10387 | 34811 ft | 537 kts | 91° |
| 2026-04-24 23:53 | 34.40052 | -107.01330 | 34818 ft | 538 kts | 91° |
| 2026-04-24 23:54 | 34.39872 | -106.92275 | 34829 ft | 538 kts | 91° |
| 2026-04-24 23:54 | 34.39679 | -106.83234 | 34839 ft | 537 kts | 91° |
| 2026-04-24 23:55 | 34.39487 | -106.74181 | 34837 ft | 538 kts | 91° |
| 2026-04-24 23:55 | 34.39284 | -106.65122 | 34839 ft | 538 kts | 91° |
| 2026-04-24 23:56 | 34.39077 | -106.56124 | 34833 ft | 538 kts | 91° |
| 2026-04-24 23:56 | 34.38862 | -106.47064 | 34816 ft | 539 kts | 91° |
| 2026-04-24 23:57 | 34.38633 | -106.37996 | 34819 ft | 539 kts | 91° |
| 2026-04-24 23:57 | 34.38410 | -106.28909 | 34827 ft | 539 kts | 91° |
| 2026-04-24 23:58 | 34.38175 | -106.19834 | 34831 ft | 540 kts | 91° |
| 2026-04-24 23:58 | 34.37932 | -106.10793 | 34848 ft | 540 kts | 91° |
| 2026-04-24 23:59 | 34.37684 | -106.01702 | 34870 ft | 540 kts | 91° |
| 2026-04-24 23:59 | 34.37423 | -105.92622 | 34882 ft | 540 kts | 91° |
| 2026-04-25 00:00 | 34.37161 | -105.83533 | 34892 ft | 540 kts | 91° |
| 2026-04-25 00:00 | 34.36894 | -105.74452 | 34933 ft | 539 kts | 91° |
| 2026-04-25 00:01 | 34.36807 | -105.65390 | 34952 ft | 538 kts | 85° |
| 2026-04-25 00:01 | 34.37291 | -105.56356 | 34959 ft | 538 kts | 84° |
| 2026-04-25 00:02 | 34.37855 | -105.47384 | 34960 ft | 537 kts | 84° |
| 2026-04-25 00:02 | 34.38341 | -105.38317 | 34959 ft | 536 kts | 85° |
| 2026-04-25 00:03 | 34.38798 | -105.29374 | 34932 ft | 535 kts | 85° |
| 2026-04-25 00:03 | 34.39287 | -105.20388 | 34892 ft | 534 kts | 85° |
| 2026-04-25 00:04 | 34.39759 | -105.11467 | 34862 ft | 534 kts | 85° |
| 2026-04-25 00:04 | 34.40216 | -105.02492 | 34858 ft | 533 kts | 85° |
| 2026-04-25 00:05 | 34.40678 | -104.93531 | 34854 ft | 533 kts | 85° |
| 2026-04-25 00:05 | 34.41131 | -104.84586 | 34864 ft | 532 kts | 85° |
| 2026-04-25 00:06 | 34.41576 | -104.75639 | 34831 ft | 533 kts | 85° |
| 2026-04-25 00:06 | 34.42008 | -104.66675 | 34821 ft | 533 kts | 85° |
| 2026-04-25 00:07 | 34.42436 | -104.57712 | 34829 ft | 532 kts | 85° |
| 2026-04-25 00:07 | 34.42867 | -104.48772 | 34857 ft | 531 kts | 85° |
| 2026-04-25 00:08 | 34.43282 | -104.39832 | 34849 ft | 531 kts | 85° |
| 2026-04-25 00:08 | 34.43684 | -104.30942 | 34860 ft | 531 kts | 85° |
| 2026-04-25 00:09 | 34.44093 | -104.22000 | 34856 ft | 531 kts | 85° |
| 2026-04-25 00:09 | 34.44495 | -104.13037 | 34857 ft | 531 kts | 85° |
| 2026-04-25 00:10 | 34.44881 | -104.04076 | 34857 ft | 532 kts | 85° |
| 2026-04-25 00:10 | 34.45265 | -103.95139 | 34857 ft | 531 kts | 86° |
| 2026-04-25 00:11 | 34.45645 | -103.86262 | 34856 ft | 530 kts | 86° |
| 2026-04-25 00:11 | 34.46012 | -103.77346 | 34824 ft | 530 kts | 86° |
| 2026-04-25 00:12 | 34.46376 | -103.68429 | 34820 ft | 529 kts | 86° |
| 2026-04-25 00:12 | 34.46733 | -103.59522 | 34780 ft | 529 kts | 86° |
| 2026-04-25 00:13 | 34.47082 | -103.50606 | 34770 ft | 529 kts | 86° |
| 2026-04-25 00:13 | 34.47422 | -103.41695 | 34788 ft | 528 kts | 86° |
| 2026-04-25 00:14 | 34.47759 | -103.32808 | 34786 ft | 528 kts | 86° |
| 2026-04-25 00:14 | 34.48099 | -103.23916 | 34800 ft | 528 kts | 86° |
| 2026-04-25 00:15 | 34.48420 | -103.15032 | 34829 ft | 527 kts | 86° |
| 2026-04-25 00:15 | 34.48736 | -103.06263 | 34820 ft | 527 kts | 86° |
| 2026-04-25 00:16 | 34.49054 | -102.97315 | 34818 ft | 527 kts | 86° |
| 2026-04-25 00:16 | 34.49355 | -102.88419 | 34807 ft | 528 kts | 86° |
| 2026-04-25 00:17 | 34.49107 | -102.79520 | 34812 ft | 530 kts | 97° |
| 2026-04-25 00:17 | 34.48183 | -102.70629 | 34800 ft | 532 kts | 99° |
| 2026-04-25 00:18 | 34.47179 | -102.61717 | 34791 ft | 535 kts | 98° |
| 2026-04-25 00:18 | 34.46283 | -102.52751 | 34791 ft | 536 kts | 97° |
| 2026-04-25 00:19 | 34.45365 | -102.43762 | 34792 ft | 538 kts | 98° |
| 2026-04-25 00:19 | 34.44400 | -102.34823 | 34846 ft | 538 kts | 98° |
| 2026-04-25 00:20 | 34.43446 | -102.25814 | 34876 ft | 538 kts | 98° |
| 2026-04-25 00:20 | 34.42490 | -102.16818 | 34877 ft | 537 kts | 98° |
| 2026-04-25 00:21 | 34.41532 | -102.07874 | 34863 ft | 535 kts | 98° |
| 2026-04-25 00:21 | 34.40560 | -101.98929 | 34823 ft | 534 kts | 98° |
| 2026-04-25 00:22 | 34.39590 | -101.90061 | 34784 ft | 534 kts | 98° |
| 2026-04-25 00:22 | 34.38617 | -101.81146 | 34776 ft | 533 kts | 98° |
| 2026-04-25 00:23 | 34.37624 | -101.72242 | 34775 ft | 534 kts | 98° |
| 2026-04-25 00:23 | 34.36620 | -101.63326 | 34776 ft | 535 kts | 98° |
| 2026-04-25 00:24 | 34.35636 | -101.54425 | 34776 ft | 536 kts | 98° |
| 2026-04-25 00:24 | 34.34627 | -101.45484 | 34806 ft | 537 kts | 98° |
| 2026-04-25 00:25 | 34.33592 | -101.36534 | 34859 ft | 536 kts | 98° |
| 2026-04-25 00:25 | 34.32575 | -101.27566 | 34860 ft | 538 kts | 98° |
| 2026-04-25 00:26 | 34.31547 | -101.18604 | 34855 ft | 537 kts | 98° |
| 2026-04-25 00:26 | 34.30509 | -101.09715 | 34849 ft | 536 kts | 98° |
| 2026-04-25 00:27 | 34.29472 | -101.00799 | 34811 ft | 535 kts | 98° |
| 2026-04-25 00:27 | 34.28424 | -100.91898 | 34771 ft | 535 kts | 98° |
| 2026-04-25 00:28 | 34.27374 | -100.82996 | 34746 ft | 535 kts | 98° |
| 2026-04-25 00:28 | 34.26319 | -100.74091 | 34739 ft | 535 kts | 98° |
| 2026-04-25 00:29 | 34.25256 | -100.65167 | 34737 ft | 536 kts | 98° |
| 2026-04-25 00:29 | 34.24178 | -100.56234 | 34733 ft | 537 kts | 98° |
| 2026-04-25 00:30 | 34.23101 | -100.47342 | 34737 ft | 538 kts | 98° |
| 2026-04-25 00:30 | 34.22013 | -100.38385 | 34771 ft | 538 kts | 98° |
| 2026-04-25 00:31 | 34.20908 | -100.29441 | 34819 ft | 538 kts | 98° |
| 2026-04-25 00:31 | 34.19805 | -100.20489 | 34817 ft | 539 kts | 98° |
| 2026-04-25 00:32 | 34.18882 | -100.13025 | 34812 ft | 540 kts | 98° |
| 2026-04-25 00:32 | 34.17756 | -100.04044 | 34818 ft | 540 kts | 98° |
| 2026-04-25 00:33 | 34.16630 | -99.95090 | 34808 ft | 539 kts | 98° |
| 2026-04-25 00:33 | 34.15502 | -99.86132 | 34787 ft | 538 kts | 98° |
| 2026-04-25 00:34 | 34.14362 | -99.77206 | 34751 ft | 538 kts | 98° |
| 2026-04-25 00:34 | 34.13220 | -99.68325 | 34718 ft | 538 kts | 98° |
| 2026-04-25 00:35 | 34.12076 | -99.59408 | 34715 ft | 537 kts | 98° |
| 2026-04-25 00:35 | 34.10924 | -99.50498 | 34735 ft | 537 kts | 98° |
| 2026-04-25 00:36 | 34.09764 | -99.41597 | 34752 ft | 536 kts | 98° |
| 2026-04-25 00:36 | 34.08603 | -99.32787 | 34797 ft | 535 kts | 98° |
| 2026-04-25 00:37 | 34.07438 | -99.23922 | 34796 ft | 535 kts | 98° |
| 2026-04-25 00:37 | 34.06262 | -99.15062 | 34797 ft | 534 kts | 98° |
| 2026-04-25 00:38 | 34.05078 | -99.06234 | 34785 ft | 532 kts | 98° |
| 2026-04-25 00:38 | 34.03893 | -98.97425 | 34766 ft | 531 kts | 98° |
| 2026-04-25 00:39 | 34.02718 | -98.88635 | 34726 ft | 530 kts | 98° |
| 2026-04-25 00:39 | 34.01526 | -98.79853 | 34691 ft | 530 kts | 99° |
| 2026-04-25 00:40 | 34.00333 | -98.71146 | 34695 ft | 530 kts | 98° |
| 2026-04-25 00:40 | 33.99134 | -98.62371 | 34696 ft | 531 kts | 98° |
| 2026-04-25 00:41 | 33.98191 | -98.53553 | 34695 ft | 531 kts | 95° |
| 2026-04-25 00:41 | 33.97440 | -98.44697 | 34700 ft | 532 kts | 94° |
| 2026-04-25 00:42 | 33.96693 | -98.35818 | 34746 ft | 532 kts | 95° |
| 2026-04-25 00:42 | 33.95895 | -98.26958 | 34801 ft | 532 kts | 95° |
| 2026-04-25 00:43 | 33.95091 | -98.18107 | 34795 ft | 531 kts | 95° |
| 2026-04-25 00:43 | 33.94314 | -98.09267 | 34795 ft | 530 kts | 95° |
| 2026-04-25 00:44 | 33.93518 | -98.00436 | 34762 ft | 530 kts | 95° |
| 2026-04-25 00:44 | 33.92707 | -97.91663 | 34722 ft | 530 kts | 95° |
| 2026-04-25 00:45 | 33.91895 | -97.82836 | 34713 ft | 530 kts | 95° |
| 2026-04-25 00:45 | 33.91084 | -97.74019 | 34712 ft | 530 kts | 95° |
| 2026-04-25 00:46 | 33.90258 | -97.65184 | 34736 ft | 530 kts | 95° |
| 2026-04-25 00:47 | 33.89018 | -97.51965 | 34808 ft | 530 kts | 95° |
| 2026-04-25 00:47 | 33.88187 | -97.43158 | 34802 ft | 529 kts | 95° |
| 2026-04-25 00:48 | 33.87340 | -97.34416 | 34805 ft | 528 kts | 95° |
| 2026-04-25 00:48 | 33.86490 | -97.25643 | 34807 ft | 527 kts | 95° |
| 2026-04-25 00:49 | 33.85634 | -97.16892 | 34799 ft | 526 kts | 95° |
| 2026-04-25 00:49 | 33.84783 | -97.08165 | 34801 ft | 524 kts | 95° |
| 2026-04-25 00:50 | 33.83923 | -96.99479 | 34792 ft | 522 kts | 95° |
| 2026-04-25 00:50 | 33.83055 | -96.90796 | 34769 ft | 521 kts | 96° |
| 2026-04-25 00:51 | 33.82185 | -96.82160 | 34738 ft | 520 kts | 96° |
| 2026-04-25 00:51 | 33.81321 | -96.73528 | 34750 ft | 519 kts | 96° |
| 2026-04-25 00:52 | 33.80442 | -96.64937 | 34745 ft | 517 kts | 96° |
| 2026-04-25 00:52 | 33.79563 | -96.56345 | 34736 ft | 516 kts | 96° |
| 2026-04-25 00:53 | 33.78688 | -96.47790 | 34750 ft | 514 kts | 96° |
| 2026-04-25 00:53 | 33.77805 | -96.39321 | 34738 ft | 513 kts | 96° |
| 2026-04-25 00:54 | 33.76907 | -96.30805 | 34723 ft | 513 kts | 96° |
| 2026-04-25 00:54 | 33.76022 | -96.22310 | 34732 ft | 511 kts | 96° |
| 2026-04-25 00:55 | 33.75122 | -96.13835 | 34722 ft | 511 kts | 96° |
| 2026-04-25 00:55 | 33.74213 | -96.05342 | 34715 ft | 512 kts | 96° |
| 2026-04-25 00:56 | 33.73308 | -95.96857 | 34727 ft | 512 kts | 96° |
| 2026-04-25 00:56 | 33.72388 | -95.88373 | 34777 ft | 511 kts | 96° |
| 2026-04-25 00:57 | 33.71461 | -95.79909 | 34791 ft | 511 kts | 96° |
| 2026-04-25 00:57 | 33.70547 | -95.71505 | 34786 ft | 511 kts | 96° |
| 2026-04-25 00:58 | 33.69617 | -95.63041 | 34776 ft | 510 kts | 96° |
| 2026-04-25 00:58 | 33.68674 | -95.54612 | 34762 ft | 509 kts | 96° |
| 2026-04-25 00:59 | 33.67729 | -95.46160 | 34723 ft | 509 kts | 96° |
| 2026-04-25 00:59 | 33.66797 | -95.37737 | 34682 ft | 509 kts | 96° |
| 2026-04-25 01:00 | 33.65848 | -95.29374 | 34679 ft | 508 kts | 97° |
| 2026-04-25 01:00 | 33.64880 | -95.20974 | 34697 ft | 508 kts | 97° |
| 2026-04-25 01:01 | 33.63927 | -95.12565 | 34713 ft | 508 kts | 97° |
| 2026-04-25 01:01 | 33.62967 | -95.04271 | 34767 ft | 507 kts | 97° |
| 2026-04-25 01:02 | 33.61995 | -94.95830 | 34815 ft | 507 kts | 97° |
| 2026-04-25 01:02 | 33.61023 | -94.87458 | 34819 ft | 506 kts | 97° |
| 2026-04-25 01:03 | 33.60039 | -94.79118 | 34842 ft | 503 kts | 97° |
| 2026-04-25 01:03 | 33.59064 | -94.70821 | 34820 ft | 502 kts | 97° |
| 2026-04-25 01:04 | 33.58077 | -94.62519 | 34780 ft | 501 kts | 97° |
| 2026-04-25 01:04 | 33.57084 | -94.54241 | 34760 ft | 500 kts | 97° |
| 2026-04-25 01:05 | 33.56107 | -94.46112 | 34760 ft | 499 kts | 97° |
| 2026-04-25 01:05 | 33.55104 | -94.37742 | 34770 ft | 499 kts | 97° |
| 2026-04-25 01:06 | 33.54113 | -94.29569 | 34772 ft | 498 kts | 98° |
| 2026-04-25 01:06 | 33.53150 | -94.21722 | 34793 ft | 498 kts | 98° |
| 2026-04-25 01:07 | 33.52122 | -94.13312 | 34801 ft | 497 kts | 98° |
| 2026-04-25 01:07 | 33.50977 | -94.05144 | 34829 ft | 496 kts | 102° |
| 2026-04-25 01:08 | 33.49433 | -93.97079 | 34809 ft | 497 kts | 103° |
| 2026-04-25 01:08 | 33.47854 | -93.89072 | 34848 ft | 496 kts | 103° |
| 2026-04-25 01:09 | 33.46306 | -93.81027 | 34872 ft | 495 kts | 103° |
| 2026-04-25 01:09 | 33.44750 | -93.73004 | 34867 ft | 494 kts | 103° |
| 2026-04-25 01:10 | 33.43181 | -93.65001 | 34829 ft | 493 kts | 103° |
| 2026-04-25 01:10 | 33.41612 | -93.56997 | 34790 ft | 493 kts | 103° |
| 2026-04-25 01:11 | 33.40044 | -93.49018 | 34778 ft | 493 kts | 103° |
| 2026-04-25 01:11 | 33.38481 | -93.41092 | 34782 ft | 493 kts | 103° |
| 2026-04-25 01:12 | 33.36898 | -93.33103 | 34792 ft | 493 kts | 103° |
| 2026-04-25 01:12 | 33.35318 | -93.25136 | 34850 ft | 492 kts | 104° |
| 2026-04-25 01:13 | 33.33716 | -93.17158 | 34867 ft | 492 kts | 104° |
| 2026-04-25 01:13 | 33.32128 | -93.09199 | 34870 ft | 492 kts | 104° |
| 2026-04-25 01:14 | 33.30530 | -93.01248 | 34876 ft | 491 kts | 104° |
| 2026-04-25 01:14 | 33.28931 | -92.93333 | 34878 ft | 489 kts | 104° |
| 2026-04-25 01:15 | 33.27348 | -92.85480 | 34858 ft | 488 kts | 104° |
| 2026-04-25 01:15 | 33.25749 | -92.77599 | 34829 ft | 488 kts | 104° |
| 2026-04-25 01:16 | 33.24143 | -92.69736 | 34798 ft | 487 kts | 104° |
| 2026-04-25 01:16 | 33.22536 | -92.61880 | 34793 ft | 486 kts | 105° |
| 2026-04-25 01:17 | 33.20930 | -92.54052 | 34805 ft | 485 kts | 105° |
| 2026-04-25 01:17 | 33.19320 | -92.46225 | 34797 ft | 485 kts | 105° |
| 2026-04-25 01:18 | 33.17978 | -92.39733 | 34818 ft | 484 kts | 105° |
| 2026-04-25 01:18 | 33.16384 | -92.32047 | 34802 ft | 484 kts | 105° |
| 2026-04-25 01:19 | 33.14739 | -92.24126 | 34813 ft | 484 kts | 105° |
| 2026-04-25 01:19 | 33.13120 | -92.16346 | 34839 ft | 483 kts | 105° |
| 2026-04-25 01:20 | 33.11498 | -92.08607 | 34821 ft | 483 kts | 105° |
| 2026-04-25 01:20 | 33.09865 | -92.00834 | 34823 ft | 483 kts | 105° |
| 2026-04-25 01:21 | 33.08226 | -91.93074 | 34871 ft | 481 kts | 105° |
| 2026-04-25 01:21 | 33.06596 | -91.85355 | 34892 ft | 479 kts | 105° |
| 2026-04-25 01:22 | 33.04961 | -91.77666 | 34894 ft | 477 kts | 105° |
| 2026-04-25 01:22 | 33.03339 | -91.70015 | 34866 ft | 475 kts | 105° |
| 2026-04-25 01:23 | 33.01713 | -91.62394 | 34824 ft | 473 kts | 105° |
| 2026-04-25 01:23 | 33.00096 | -91.54843 | 34807 ft | 472 kts | 105° |
| 2026-04-25 01:24 | 32.98468 | -91.47263 | 34803 ft | 473 kts | 105° |
| 2026-04-25 01:24 | 32.96831 | -91.39670 | 34803 ft | 474 kts | 105° |
| 2026-04-25 01:25 | 32.95189 | -91.32042 | 34804 ft | 476 kts | 105° |
| 2026-04-25 01:25 | 32.93525 | -91.24397 | 34807 ft | 477 kts | 105° |
| 2026-04-25 01:26 | 32.91856 | -91.16737 | 34819 ft | 479 kts | 105° |
| 2026-04-25 01:26 | 32.90201 | -91.09142 | 34876 ft | 479 kts | 105° |
| 2026-04-25 01:27 | 32.88502 | -91.01401 | 34891 ft | 479 kts | 105° |
| 2026-04-25 01:27 | 32.86816 | -90.93742 | 34887 ft | 478 kts | 105° |
| 2026-04-25 01:28 | 32.84306 | -90.82313 | 34849 ft | 478 kts | 105° |
| 2026-04-25 01:28 | 32.82603 | -90.74670 | 34836 ft | 477 kts | 105° |
| 2026-04-25 01:29 | 32.80915 | -90.67036 | 34809 ft | 477 kts | 105° |
| 2026-04-25 01:29 | 32.79224 | -90.59406 | 34805 ft | 477 kts | 105° |
| 2026-04-25 01:30 | 32.77515 | -90.51794 | 34806 ft | 477 kts | 105° |
| 2026-04-25 01:30 | 32.75802 | -90.44168 | 34810 ft | 478 kts | 105° |
| 2026-04-25 01:31 | 32.74086 | -90.36529 | 34807 ft | 479 kts | 105° |
| 2026-04-25 01:31 | 32.72370 | -90.28927 | 34820 ft | 479 kts | 105° |
| 2026-04-25 01:32 | 32.70638 | -90.21286 | 34844 ft | 479 kts | 105° |
| 2026-04-25 01:32 | 32.68915 | -90.13658 | 34856 ft | 479 kts | 105° |
| 2026-04-25 01:33 | 32.67178 | -90.06014 | 34822 ft | 480 kts | 105° |
| 2026-04-25 01:33 | 32.65428 | -89.98367 | 34842 ft | 480 kts | 105° |
| 2026-04-25 01:34 | 32.63688 | -89.90761 | 34889 ft | 479 kts | 105° |
| 2026-04-25 01:34 | 32.61942 | -89.83147 | 34907 ft | 477 kts | 105° |
| 2026-04-25 01:35 | 32.60185 | -89.75529 | 34886 ft | 477 kts | 105° |
| 2026-04-25 01:35 | 32.58448 | -89.67982 | 34880 ft | 476 kts | 105° |
| 2026-04-25 01:36 | 32.56696 | -89.60410 | 34854 ft | 476 kts | 105° |
| 2026-04-25 01:36 | 32.54929 | -89.52831 | 34836 ft | 476 kts | 105° |
| 2026-04-25 01:37 | 32.53166 | -89.45278 | 34861 ft | 475 kts | 105° |
| 2026-04-25 01:37 | 32.51412 | -89.37751 | 34891 ft | 474 kts | 105° |
| 2026-04-25 01:38 | 32.49646 | -89.30245 | 34924 ft | 472 kts | 106° |
| 2026-04-25 01:38 | 32.47887 | -89.22747 | 34938 ft | 471 kts | 106° |
| 2026-04-25 01:39 | 32.46147 | -89.15314 | 34944 ft | 470 kts | 106° |
| 2026-04-25 01:39 | 32.44380 | -89.07877 | 34936 ft | 469 kts | 106° |
| 2026-04-25 01:40 | 32.42616 | -89.00457 | 34904 ft | 467 kts | 106° |
| 2026-04-25 01:40 | 32.40861 | -88.93063 | 34946 ft | 468 kts | 106° |
| 2026-04-25 01:41 | 32.39075 | -88.85593 | 34951 ft | 471 kts | 106° |
| 2026-04-25 01:41 | 32.37391 | -88.78203 | 34953 ft | 463 kts | 104° |
| 2026-04-25 01:42 | 32.35945 | -88.70792 | 34833 ft | 461 kts | 103° |
| 2026-04-25 01:42 | 32.35227 | -88.67107 | 34968 ft | 460 kts | 103° |
| 2026-04-25 01:42 | 32.34497 | -88.63400 | 34970 ft | 466 kts | 104° |
| 2026-04-25 01:43 | 32.33005 | -88.55887 | 34957 ft | 473 kts | 104° |
| 2026-04-25 01:43 | 32.31491 | -88.48278 | 34949 ft | 475 kts | 104° |
| 2026-04-25 01:44 | 32.29970 | -88.40672 | 34906 ft | 480 kts | 104° |
| 2026-04-25 01:44 | 32.28440 | -88.32989 | 34917 ft | 481 kts | 104° |
| 2026-04-25 01:45 | 32.26898 | -88.25287 | 34921 ft | 481 kts | 104° |
| 2026-04-25 01:45 | 32.25341 | -88.17584 | 34922 ft | 482 kts | 104° |
| 2026-04-25 01:46 | 32.23779 | -88.09874 | 34918 ft | 483 kts | 104° |
| 2026-04-25 01:46 | 32.22220 | -88.02127 | 34899 ft | 486 kts | 104° |
| 2026-04-25 01:47 | 32.20639 | -87.94345 | 34896 ft | 488 kts | 104° |
| 2026-04-25 01:47 | 32.19037 | -87.86533 | 34898 ft | 491 kts | 104° |
| 2026-04-25 01:48 | 32.17443 | -87.78738 | 34902 ft | 493 kts | 104° |
| 2026-04-25 01:48 | 32.15831 | -87.70870 | 34960 ft | 493 kts | 104° |
| 2026-04-25 01:49 | 32.14209 | -87.63000 | 35004 ft | 493 kts | 104° |
| 2026-04-25 01:49 | 32.12582 | -87.55145 | 35037 ft | 494 kts | 104° |
| 2026-04-25 01:50 | 32.10944 | -87.47260 | 35070 ft | 494 kts | 104° |
| 2026-04-25 01:50 | 32.09304 | -87.39391 | 35102 ft | 494 kts | 104° |
| 2026-04-25 01:51 | 32.07670 | -87.31575 | 35127 ft | 494 kts | 104° |
| 2026-04-25 01:51 | 32.06016 | -87.23686 | 35162 ft | 494 kts | 104° |
| 2026-04-25 01:52 | 32.04360 | -87.15806 | 35145 ft | 495 kts | 104° |
| 2026-04-25 01:52 | 32.02696 | -87.07932 | 35159 ft | 495 kts | 104° |
| 2026-04-25 01:53 | 32.01028 | -87.00045 | 35146 ft | 496 kts | 104° |
| 2026-04-25 01:53 | 31.99361 | -86.92197 | 35126 ft | 498 kts | 104° |
| 2026-04-25 01:54 | 31.97672 | -86.84292 | 35003 ft | 503 kts | 104° |
| 2026-04-25 01:54 | 31.95951 | -86.76238 | 35013 ft | 504 kts | 104° |
| 2026-04-25 01:55 | 31.94235 | -86.68239 | 35070 ft | 504 kts | 104° |
| 2026-04-25 01:55 | 31.92518 | -86.60248 | 35138 ft | 503 kts | 104° |
| 2026-04-25 01:56 | 31.90796 | -86.52250 | 35150 ft | 504 kts | 104° |
| 2026-04-25 01:56 | 31.89070 | -86.44272 | 35213 ft | 502 kts | 104° |
| 2026-04-25 01:57 | 31.86478 | -86.32375 | 35265 ft | 501 kts | 104° |
| 2026-04-25 01:58 | 31.84737 | -86.24422 | 35271 ft | 501 kts | 104° |
| 2026-04-25 01:58 | 31.82996 | -86.16492 | 35275 ft | 501 kts | 104° |
| 2026-04-25 01:59 | 31.81254 | -86.08558 | 35280 ft | 501 kts | 104° |
| 2026-04-25 01:59 | 31.79515 | -86.00672 | 35284 ft | 501 kts | 104° |
| 2026-04-25 02:00 | 31.77759 | -85.92738 | 35287 ft | 501 kts | 104° |
| 2026-04-25 02:00 | 31.75997 | -85.84813 | 35292 ft | 501 kts | 104° |
| 2026-04-25 02:01 | 31.74243 | -85.76961 | 35080 ft | 483 kts | 104° |
| 2026-04-25 02:01 | 31.73402 | -85.73187 | 35025 ft | 472 kts | 104° |
| 2026-04-25 02:01 | 31.72579 | -85.69499 | 34991 ft | 462 kts | 104° |
| 2026-04-25 02:02 | 31.70961 | -85.62288 | 34970 ft | 458 kts | 104° |
| 2026-04-25 02:02 | 31.69338 | -85.55059 | 34956 ft | 463 kts | 104° |
| 2026-04-25 02:03 | 31.67687 | -85.47723 | 34949 ft | 465 kts | 104° |
| 2026-04-25 02:03 | 31.66027 | -85.40382 | 34948 ft | 465 kts | 104° |
| 2026-04-25 02:04 | 31.64351 | -85.33028 | 34949 ft | 466 kts | 104° |
| 2026-04-25 02:04 | 31.62693 | -85.25677 | 34931 ft | 466 kts | 104° |
| 2026-04-25 02:05 | 31.61012 | -85.18312 | 34896 ft | 467 kts | 104° |
| 2026-04-25 02:05 | 31.59331 | -85.10943 | 34894 ft | 468 kts | 104° |
| 2026-04-25 02:06 | 31.57641 | -85.03563 | 34895 ft | 468 kts | 104° |
| 2026-04-25 02:06 | 31.56016 | -84.97505 | 34916 ft | 469 kts | 109° |
| 2026-04-25 02:07 | 31.53444 | -84.89151 | 34933 ft | 469 kts | 110° |
| 2026-04-25 02:07 | 31.51579 | -84.83125 | 34944 ft | 469 kts | 109° |
| 2026-04-25 02:08 | 31.49389 | -84.75941 | 34952 ft | 469 kts | 109° |
| 2026-04-25 02:08 | 31.47191 | -84.68799 | 34970 ft | 468 kts | 109° |
| 2026-04-25 02:09 | 31.44974 | -84.61637 | 34987 ft | 468 kts | 109° |
| 2026-04-25 02:09 | 31.42765 | -84.54460 | 34957 ft | 468 kts | 109° |
| 2026-04-25 02:10 | 31.40546 | -84.47284 | 34936 ft | 468 kts | 109° |
| 2026-04-25 02:10 | 31.38333 | -84.40170 | 34919 ft | 468 kts | 109° |
| 2026-04-25 02:11 | 31.36096 | -84.33006 | 34907 ft | 468 kts | 109° |
| 2026-04-25 02:11 | 31.33872 | -84.25855 | 34909 ft | 468 kts | 109° |
| 2026-04-25 02:12 | 31.31639 | -84.18704 | 34908 ft | 468 kts | 109° |
| 2026-04-25 02:12 | 31.29401 | -84.11553 | 34915 ft | 468 kts | 109° |
| 2026-04-25 02:13 | 31.27151 | -84.04403 | 34917 ft | 468 kts | 109° |
| 2026-04-25 02:13 | 31.24918 | -83.97301 | 34908 ft | 469 kts | 109° |
| 2026-04-25 02:14 | 31.22657 | -83.90133 | 34911 ft | 470 kts | 109° |
| 2026-04-25 02:14 | 31.20388 | -83.82960 | 34914 ft | 471 kts | 109° |
| 2026-04-25 02:15 | 31.18116 | -83.75766 | 34922 ft | 472 kts | 110° |
| 2026-04-25 02:15 | 31.15832 | -83.68578 | 34941 ft | 472 kts | 110° |
| 2026-04-25 02:16 | 31.13558 | -83.61437 | 34990 ft | 472 kts | 110° |
| 2026-04-25 02:16 | 31.11267 | -83.54245 | 34991 ft | 473 kts | 110° |
| 2026-04-25 02:17 | 31.08972 | -83.47054 | 34973 ft | 473 kts | 110° |
| 2026-04-25 02:17 | 31.06669 | -83.39856 | 34970 ft | 473 kts | 110° |
| 2026-04-25 02:18 | 31.04364 | -83.32665 | 34944 ft | 474 kts | 110° |
| 2026-04-25 02:18 | 31.02046 | -83.25454 | 34910 ft | 474 kts | 110° |
| 2026-04-25 02:19 | 30.99723 | -83.18272 | 34941 ft | 473 kts | 110° |
| 2026-04-25 02:19 | 30.97399 | -83.11099 | 34916 ft | 473 kts | 110° |
| 2026-04-25 02:20 | 30.95078 | -83.03921 | 34903 ft | 474 kts | 110° |
| 2026-04-25 02:20 | 30.92761 | -82.96779 | 34912 ft | 474 kts | 110° |
| 2026-04-25 02:21 | 30.90350 | -82.89628 | 34927 ft | 474 kts | 115° |
| 2026-04-25 02:21 | 30.86592 | -82.83366 | 34915 ft | 473 kts | 137° |
| 2026-04-25 02:22 | 30.81455 | -82.78624 | 34916 ft | 472 kts | 145° |
| 2026-04-25 02:22 | 30.76160 | -82.74047 | 34922 ft | 473 kts | 144° |
| 2026-04-25 02:23 | 30.71022 | -82.69346 | 34950 ft | 473 kts | 143° |
| 2026-04-25 02:23 | 30.65836 | -82.64629 | 34937 ft | 474 kts | 143° |
| 2026-04-25 02:24 | 30.60609 | -82.59945 | 34964 ft | 474 kts | 143° |
| 2026-04-25 02:24 | 30.55378 | -82.55271 | 34985 ft | 474 kts | 143° |
| 2026-04-25 02:25 | 30.50162 | -82.50591 | 34990 ft | 474 kts | 143° |
| 2026-04-25 02:25 | 30.44941 | -82.45908 | 34953 ft | 475 kts | 143° |
| 2026-04-25 02:26 | 30.39715 | -82.41227 | 34950 ft | 475 kts | 144° |
| 2026-04-25 02:26 | 30.34483 | -82.36570 | 34938 ft | 475 kts | 144° |
| 2026-04-25 02:27 | 30.29240 | -82.31892 | 34945 ft | 475 kts | 144° |
| 2026-04-25 02:27 | 30.24033 | -82.27247 | 34959 ft | 475 kts | 144° |
| 2026-04-25 02:28 | 30.18354 | -82.23486 | 34936 ft | 470 kts | 163° |
| 2026-04-25 02:28 | 30.11996 | -82.21926 | 34946 ft | 465 kts | 175° |
| 2026-04-25 02:29 | 30.05571 | -82.20865 | 34939 ft | 465 kts | 174° |
| 2026-04-25 02:29 | 30.02384 | -82.20263 | 34707 ft | 464 kts | 173° |
| 2026-04-25 02:29 | 29.99193 | -82.19599 | 34159 ft | 465 kts | 172° |
| 2026-04-25 02:29 | 29.96048 | -82.18928 | 33513 ft | 465 kts | 172° |
| 2026-04-25 02:30 | 29.92861 | -82.18272 | 32820 ft | 466 kts | 173° |
| 2026-04-25 02:30 | 29.89661 | -82.17646 | 32116 ft | 467 kts | 173° |
| 2026-04-25 02:30 | 29.86447 | -82.17029 | 31404 ft | 468 kts | 173° |
| 2026-04-25 02:30 | 29.83236 | -82.16401 | 30714 ft | 468 kts | 172° |
| 2026-04-25 02:31 | 29.80024 | -82.15757 | 30079 ft | 467 kts | 172° |
| 2026-04-25 02:31 | 29.76829 | -82.15110 | 29434 ft | 466 kts | 172° |
| 2026-04-25 02:31 | 29.73641 | -82.14467 | 28801 ft | 464 kts | 172° |
| 2026-04-25 02:31 | 29.70457 | -82.13833 | 28173 ft | 462 kts | 172° |
| 2026-04-25 02:32 | 29.67295 | -82.13209 | 27576 ft | 460 kts | 172° |
| 2026-04-25 02:32 | 29.64143 | -82.12588 | 26934 ft | 459 kts | 172° |
| 2026-04-25 02:32 | 29.61043 | -82.11975 | 26318 ft | 457 kts | 172° |
| 2026-04-25 02:32 | 29.57917 | -82.11352 | 25696 ft | 455 kts | 172° |
| 2026-04-25 02:33 | 29.54801 | -82.10730 | 25083 ft | 453 kts | 172° |
| 2026-04-25 02:33 | 29.51704 | -82.10114 | 24441 ft | 451 kts | 172° |
| 2026-04-25 02:33 | 29.48613 | -82.09504 | 23801 ft | 449 kts | 172° |
| 2026-04-25 02:33 | 29.45543 | -82.08900 | 23193 ft | 447 kts | 172° |
| 2026-04-25 02:34 | 29.42475 | -82.08296 | 22586 ft | 444 kts | 172° |
| 2026-04-25 02:34 | 29.39429 | -82.07692 | 21950 ft | 443 kts | 172° |
| 2026-04-25 02:34 | 29.36407 | -82.07094 | 21325 ft | 441 kts | 172° |
| 2026-04-25 02:34 | 29.33385 | -82.06498 | 20701 ft | 438 kts | 172° |
| 2026-04-25 02:35 | 29.30432 | -82.05716 | 20086 ft | 435 kts | 161° |
| 2026-04-25 02:35 | 29.27693 | -82.04251 | 19483 ft | 432 kts | 153° |
| 2026-04-25 02:35 | 29.25107 | -82.02608 | 18873 ft | 428 kts | 151° |
| 2026-04-25 02:35 | 29.22547 | -82.00898 | 18285 ft | 424 kts | 150° |
| 2026-04-25 02:36 | 29.20006 | -81.99214 | 17710 ft | 419 kts | 151° |
| 2026-04-25 02:36 | 29.17466 | -81.97590 | 17109 ft | 415 kts | 152° |
| 2026-04-25 02:36 | 29.14936 | -81.96022 | 16540 ft | 411 kts | 153° |
| 2026-04-25 02:36 | 29.12437 | -81.94481 | 15982 ft | 406 kts | 153° |
| 2026-04-25 02:37 | 29.09965 | -81.92943 | 15427 ft | 402 kts | 152° |
| 2026-04-25 02:37 | 29.07538 | -81.91390 | 14884 ft | 398 kts | 149° |
| 2026-04-25 02:37 | 29.05354 | -81.89460 | 14314 ft | 395 kts | 139° |
| 2026-04-25 02:37 | 29.03334 | -81.87343 | 13748 ft | 392 kts | 137° |
| 2026-04-25 02:38 | 29.01394 | -81.85196 | 13198 ft | 388 kts | 136° |
| 2026-04-25 02:38 | 28.99494 | -81.83083 | 12720 ft | 382 kts | 136° |
| 2026-04-25 02:38 | 28.97653 | -81.80910 | 12483 ft | 369 kts | 130° |
| 2026-04-25 02:38 | 28.96087 | -81.78699 | 12303 ft | 356 kts | 128° |
| 2026-04-25 02:39 | 28.94592 | -81.76472 | 11861 ft | 352 kts | 127° |
| 2026-04-25 02:39 | 28.93114 | -81.74225 | 11453 ft | 347 kts | 127° |
| 2026-04-25 02:39 | 28.91700 | -81.72090 | 11289 ft | 334 kts | 128° |
| 2026-04-25 02:39 | 28.90318 | -81.70026 | 11151 ft | 321 kts | 128° |
| 2026-04-25 02:40 | 28.88977 | -81.68036 | 10954 ft | 311 kts | 128° |
| 2026-04-25 02:40 | 28.87662 | -81.66089 | 10488 ft | 311 kts | 128° |
| 2026-04-25 02:40 | 28.86338 | -81.64135 | 10043 ft | 310 kts | 128° |
| 2026-04-25 02:40 | 28.85024 | -81.62201 | 9657 ft | 306 kts | 128° |
| 2026-04-25 02:41 | 28.83720 | -81.60278 | 9212 ft | 305 kts | 128° |
| 2026-04-25 02:41 | 28.82429 | -81.58371 | 8835 ft | 301 kts | 128° |
| 2026-04-25 02:41 | 28.81176 | -81.56517 | 8493 ft | 296 kts | 128° |
| 2026-04-25 02:41 | 28.79944 | -81.54695 | 8353 ft | 283 kts | 128° |
| 2026-04-25 02:42 | 28.78793 | -81.52925 | 8158 ft | 273 kts | 124° |
| 2026-04-25 02:42 | 28.77753 | -81.51115 | 7737 ft | 273 kts | 123° |
| 2026-04-25 02:42 | 28.76748 | -81.49283 | 7313 ft | 272 kts | 122° |
| 2026-04-25 02:42 | 28.75749 | -81.47472 | 7008 ft | 265 kts | 123° |
| 2026-04-25 02:43 | 28.74772 | -81.45745 | 6839 ft | 254 kts | 123° |
| 2026-04-25 02:43 | 28.73818 | -81.44071 | 6527 ft | 250 kts | 123° |
| 2026-04-25 02:43 | 28.72995 | -81.42339 | 6152 ft | 249 kts | 108° |
| 2026-04-25 02:43 | 28.72562 | -81.40440 | 5790 ft | 247 kts | 104° |
| 2026-04-25 02:44 | 28.72105 | -81.38563 | 5437 ft | 244 kts | 108° |
| 2026-04-25 02:44 | 28.71534 | -81.36755 | 5097 ft | 242 kts | 111° |
| 2026-04-25 02:44 | 28.70929 | -81.34982 | 4760 ft | 239 kts | 114° |
| 2026-04-25 02:44 | 28.69972 | -81.33477 | 4376 ft | 235 kts | 144° |
| 2026-04-25 02:45 | 28.68489 | -81.32866 | 4037 ft | 228 kts | 178° |
| 2026-04-25 02:45 | 28.66956 | -81.32905 | 3989 ft | 215 kts | 181° |
| 2026-04-25 02:45 | 28.65518 | -81.32940 | 3965 ft | 198 kts | 180° |
| 2026-04-25 02:45 | 28.64178 | -81.32919 | 3787 ft | 188 kts | 178° |
| 2026-04-25 02:46 | 28.62906 | -81.32888 | 3591 ft | 174 kts | 178° |
| 2026-04-25 02:46 | 28.61743 | -81.32876 | 3363 ft | 161 kts | 178° |
| 2026-04-25 02:46 | 28.60657 | -81.32867 | 3170 ft | 154 kts | 178° |
| 2026-04-25 02:46 | 28.59680 | -81.32854 | 2988 ft | 153 kts | 177° |
| 2026-04-25 02:47 | 28.58614 | -81.32843 | 2785 ft | 153 kts | 177° |
| 2026-04-25 02:47 | 28.57550 | -81.32834 | 2582 ft | 152 kts | 177° |
| 2026-04-25 02:47 | 28.56492 | -81.32822 | 2380 ft | 152 kts | 177° |
| 2026-04-25 02:47 | 28.55434 | -81.32810 | 2178 ft | 151 kts | 177° |
| 2026-04-25 02:48 | 28.54387 | -81.32800 | 1978 ft | 151 kts | 177° |
| 2026-04-25 02:48 | 28.53339 | -81.32788 | 1778 ft | 150 kts | 177° |
| 2026-04-25 02:48 | 28.52306 | -81.32778 | 1580 ft | 150 kts | 177° |
| 2026-04-25 02:48 | 28.51265 | -81.32766 | 1381 ft | 149 kts | 177° |
| 2026-04-25 02:49 | 28.50217 | -81.32755 | 1181 ft | 149 kts | 177° |
| 2026-04-25 02:49 | 28.49200 | -81.32744 | 986 ft | 148 kts | 177° |
| 2026-04-25 02:49 | 28.48156 | -81.32734 | 786 ft | 148 kts | 177° |
| 2026-04-25 02:49 | 28.47141 | -81.32730 | 592 ft | 147 kts | 177° |
| 2026-04-25 02:50 | 28.46119 | -81.32718 | 396 ft | 147 kts | 176° |
| 2026-04-25 02:50 | 28.45097 | -81.32701 | 200 ft | 146 kts | 177° |
| 2026-04-25 02:50 | 28.44099 | -81.32690 | 111 ft | 136 kts | 177° |
| 2026-04-25 02:50 | 28.43446 | -81.32681 | 111 ft | 50 kts | 180° |
| 2026-04-25 02:51 | 28.43221 | -81.32687 | 111 ft | 27 kts | 172° |
| 2026-04-25 02:51 | 28.43081 | -81.32605 | 111 ft | 20 kts | 124° |
| 2026-04-25 02:51 | 28.43056 | -81.32455 | 111 ft | 20 kts | 92° |
| 2026-04-25 02:51 | 28.43055 | -81.32303 | 111 ft | 18 kts | 89° |
| 2026-04-25 02:52 | 28.43057 | -81.32160 | 111 ft | 18 kts | 89° |
| 2026-04-25 02:52 | 28.43053 | -81.32021 | 111 ft | 16 kts | 114° |
| 2026-04-25 02:52 | 28.42958 | -81.31994 | 111 ft | 15 kts | 182° |
| 2026-04-25 02:52 | 28.42852 | -81.31993 | 111 ft | 16 kts | 179° |
| 2026-04-25 02:53 | 28.42742 | -81.31990 | 111 ft | 16 kts | 178° |
| 2026-04-25 02:53 | 28.42626 | -81.31988 | 111 ft | 17 kts | 180° |
| 2026-04-25 02:53 | 28.42506 | -81.31987 | 111 ft | 18 kts | 179° |
| 2026-04-25 02:53 | 28.42383 | -81.31985 | 111 ft | 17 kts | 180° |
| 2026-04-25 02:54 | 28.42282 | -81.31976 | 111 ft | 12 kts | 149° |
| 2026-04-25 02:54 | 28.42262 | -81.31888 | 111 ft | 12 kts | 90° |
| 2026-04-25 02:54 | 28.42261 | -81.31786 | 111 ft | 13 kts | 90° |
| 2026-04-25 02:54 | 28.42263 | -81.31677 | 111 ft | 14 kts | 88° |
| 2026-04-25 02:55 | 28.42266 | -81.31560 | 111 ft | 15 kts | 88° |
| 2026-04-25 02:55 | 28.42268 | -81.31479 | 111 ft | 16 kts | 89° |
| 2026-04-25 02:55 | 28.42269 | -81.31305 | 111 ft | 17 kts | 91° |
| 2026-04-25 02:55 | 28.42256 | -81.31168 | 111 ft | 18 kts | 100° |
| 2026-04-25 02:56 | 28.42234 | -81.31028 | 111 ft | 19 kts | 99° |
| 2026-04-25 02:56 | 28.42239 | -81.30880 | 111 ft | 19 kts | 86° |
| 2026-04-25 02:56 | 28.42246 | -81.30777 | 111 ft | 20 kts | 86° |
| 2026-04-25 02:56 | 28.42258 | -81.30620 | 111 ft | 20 kts | 85° |
| 2026-04-25 02:57 | 28.42270 | -81.30458 | 111 ft | 20 kts | 86° |
| 2026-04-25 02:57 | 28.42274 | -81.30322 | 111 ft | 17 kts | 88° |
| 2026-04-25 02:57 | 28.42276 | -81.30198 | 111 ft | 13 kts | 89° |
| 2026-04-25 02:57 | 28.42323 | -81.30140 | 111 ft | 11 kts | 5° |
| 2026-04-25 02:58 | 28.42404 | -81.30134 | 111 ft | 12 kts | 8° |
| 2026-04-25 02:58 | 28.42433 | -81.30061 | 111 ft | 12 kts | 101° |
| 2026-04-25 02:58 | 28.42446 | -81.29971 | 111 ft | 12 kts | 61° |
| 2026-04-25 02:58 | 28.42510 | -81.29904 | 111 ft | 13 kts | 25° |
| 2026-04-25 02:59 | 28.42601 | -81.29896 | 111 ft | 14 kts | 339° |
| 2026-04-25 02:59 | 28.42643 | -81.29937 | 111 ft | 7 kts | 278° |
| 2026-04-25 02:59 | 28.42627 | -81.29989 | 111 ft | 6 kts | 241° |
| 2026-04-25 02:59 | 28.42619 | -81.30006 | 111 ft | 0 kts | 239° |